OPLA/LHE METAR and TAF weather

Enter ICAO airport designator
Station Type Date Time Source
OPLA METAR 2019/04/21 22:25 UTC NOAA

OPLA 212225Z 00000KT 4000 FU NSC 25/14 Q1006 RMK QFE980 RMK A29.71


Station Type Date Time Source
OPLA Decoded METAR 2019/04/21 22:25 UTC NOAA

Lahore Airport, Pakistan (OPLA) 31-31N 074-24E 217M
Apr 21, 2019 - 06:25 PM EDT / 2019.04.21 2225 UTC
Wind: Calm:0
Visibility: 2 mile(s):0
Weather: smoke
Temperature: 77 F (25 C)
Dew Point: 57 F (14 C)
Relative Humidity: 50%
Pressure (altimeter): 29.71 in. Hg (1006 hPa)
ob: OPLA 212225Z 00000KT 4000 FU NSC 25/14 Q1006 RMK QFE980 RMK A29.71
cycle: 22

Station Type Date Time Source
OPLA TAF 2019/04/21 18:08 UTC NOAA

TAF OPLA 211545Z 2118/2224 31004KT 4000 FU NSC TX37/2210Z TN21/2201Z
TEMPO 2206/2212 30006KT 6000

Example: see airport list